sensor_id;sensor_type;location;lat;lon;timestamp;temperature;humidity
23556;DHT22;11956;53.184;8.578;2023-02-13T00:00:25;7.90;99.90
23556;DHT22;11956;53.184;8.578;2023-02-13T00:03:26;7.90;99.90
23556;DHT22;11956;53.184;8.578;2023-02-13T00:06:27;7.90;99.90
23556;DHT22;11956;53.184;8.578;2023-02-13T00:09:28;7.90;99.90
23556;DHT22;11956;53.184;8.578;2023-02-13T00:12:28;7.80;99.90
23556;DHT22;11956;53.184;8.578;2023-02-13T00:15:29;7.80;99.90
23556;DHT22;11956;53.184;8.578;2023-02-13T00:18:34;7.80;99.90
23556;DHT22;11956;53.184;8.578;2023-02-13T00:21:36;7.90;99.90
23556;DHT22;11956;53.184;8.578;2023-02-13T00:24:37;7.90;99.90
23556;DHT22;11956;53.184;8.578;2023-02-13T00:27:37;7.90;99.90
23556;DHT22;11956;53.184;8.578;2023-02-13T00:30:38;7.90;99.90
23556;DHT22;11956;53.184;8.578;2023-02-13T00:33:39;7.90;99.90
23556;DHT22;11956;53.184;8.578;2023-02-13T00:36:41;7.80;99.90
23556;DHT22;11956;53.184;8.578;2023-02-13T00:39:41;7.80;99.90
23556;DHT22;11956;53.184;8.578;2023-02-13T00:42:43;7.90;99.90
23556;DHT22;11956;53.184;8.578;2023-02-13T00:45:44;7.80;99.90
23556;DHT22;11956;53.184;8.578;2023-02-13T00:48:45;7.80;99.90
23556;DHT22;11956;53.184;8.578;2023-02-13T00:51:46;7.80;99.90
23556;DHT22;11956;53.184;8.578;2023-02-13T00:54:48;7.80;99.90
23556;DHT22;11956;53.184;8.578;2023-02-13T00:57:48;7.80;99.90
23556;DHT22;11956;53.184;8.578;2023-02-13T01:00:51;7.80;99.90
23556;DHT22;11956;53.184;8.578;2023-02-13T01:03:52;7.80;99.90
23556;DHT22;11956;53.184;8.578;2023-02-13T01:06:55;7.80;99.90
23556;DHT22;11956;53.184;8.578;2023-02-13T01:09:55;7.70;99.90
23556;DHT22;11956;53.184;8.578;2023-02-13T01:12:56;7.70;99.90
23556;DHT22;11956;53.184;8.578;2023-02-13T01:15:58;7.70;99.90
23556;DHT22;11956;53.184;8.578;2023-02-13T01:18:59;7.70;99.90
23556;DHT22;11956;53.184;8.578;2023-02-13T01:22:00;7.70;99.90
23556;DHT22;11956;53.184;8.578;2023-02-13T01:25:02;7.70;99.90
23556;DHT22;11956;53.184;8.578;2023-02-13T01:28:04;7.70;99.90
23556;DHT22;11956;53.184;8.578;2023-02-13T01:31:05;7.80;99.90
23556;DHT22;11956;53.184;8.578;2023-02-13T01:34:06;7.80;99.90
23556;DHT22;11956;53.184;8.578;2023-02-13T01:37:07;7.70;99.90
23556;DHT22;11956;53.184;8.578;2023-02-13T01:40:12;7.70;99.90
23556;DHT22;11956;53.184;8.578;2023-02-13T01:43:14;7.70;99.90
23556;DHT22;11956;53.184;8.578;2023-02-13T01:46:18;7.70;99.90
23556;DHT22;11956;53.184;8.578;2023-02-13T01:49:24;7.70;99.90
23556;DHT22;11956;53.184;8.578;2023-02-13T01:52:25;7.70;99.90
23556;DHT22;11956;53.184;8.578;2023-02-13T01:55:27;7.70;99.90
23556;DHT22;11956;53.184;8.578;2023-02-13T01:58:32;7.70;99.90
23556;DHT22;11956;53.184;8.578;2023-02-13T02:01:36;7.60;99.90
23556;DHT22;11956;53.184;8.578;2023-02-13T02:04:38;7.60;99.90
23556;DHT22;11956;53.184;8.578;2023-02-13T02:07:47;7.60;99.90
23556;DHT22;11956;53.184;8.578;2023-02-13T02:10:55;7.60;99.90
23556;DHT22;11956;53.184;8.578;2023-02-13T02:13:58;7.60;99.90
23556;DHT22;11956;53.184;8.578;2023-02-13T02:17:07;7.60;99.90
23556;DHT22;11956;53.184;8.578;2023-02-13T02:31:09;7.60;99.90
23556;DHT22;11956;53.184;8.578;2023-02-13T02:41:38;7.70;99.90
23556;DHT22;11956;53.184;8.578;2023-02-13T02:45:32;7.70;99.90
23556;DHT22;11956;53.184;8.578;2023-02-13T02:48:37;7.70;99.90
23556;DHT22;11956;53.184;8.578;2023-02-13T02:52:17;7.70;99.90
23556;DHT22;11956;53.184;8.578;2023-02-13T02:59:10;7.70;99.90
23556;DHT22;11956;53.184;8.578;2023-02-13T03:02:34;7.70;99.90
23556;DHT22;11956;53.184;8.578;2023-02-13T03:05:54;7.80;99.90
23556;DHT22;11956;53.184;8.578;2023-02-13T03:09:14;7.70;99.90
23556;DHT22;11956;53.184;8.578;2023-02-13T03:12:43;7.60;99.90
23556;DHT22;11956;53.184;8.578;2023-02-13T03:16:11;7.50;99.90
23556;DHT22;11956;53.184;8.578;2023-02-13T03:27:18;7.60;99.90
23556;DHT22;11956;53.184;8.578;2023-02-13T03:34:20;7.70;99.90
23556;DHT22;11956;53.184;8.578;2023-02-13T03:37:29;7.70;99.90
23556;DHT22;11956;53.184;8.578;2023-02-13T03:41:04;7.70;99.90
23556;DHT22;11956;53.184;8.578;2023-02-13T03:47:41;7.70;99.90
23556;DHT22;11956;53.184;8.578;2023-02-13T03:50:44;7.70;99.90
23556;DHT22;11956;53.184;8.578;2023-02-13T03:53:48;7.70;99.90
23556;DHT22;11956;53.184;8.578;2023-02-13T03:56:52;7.80;99.90
23556;DHT22;11956;53.184;8.578;2023-02-13T04:00:14;7.80;99.90
23556;DHT22;11956;53.184;8.578;2023-02-13T04:03:23;7.80;99.90
23556;DHT22;11956;53.184;8.578;2023-02-13T04:06:49;7.80;99.90
23556;DHT22;11956;53.184;8.578;2023-02-13T04:09:54;7.70;99.90
23556;DHT22;11956;53.184;8.578;2023-02-13T04:13:47;7.80;99.90
23556;DHT22;11956;53.184;8.578;2023-02-13T04:16:50;7.80;99.90
23556;DHT22;11956;53.184;8.578;2023-02-13T04:19:52;7.70;99.90
23556;DHT22;11956;53.184;8.578;2023-02-13T04:22:54;7.70;99.90
23556;DHT22;11956;53.184;8.578;2023-02-13T04:25:56;7.80;99.90
23556;DHT22;11956;53.184;8.578;2023-02-13T04:28:57;7.80;99.90
23556;DHT22;11956;53.184;8.578;2023-02-13T04:31:58;7.80;99.90
23556;DHT22;11956;53.184;8.578;2023-02-13T04:34:59;7.80;99.90
23556;DHT22;11956;53.184;8.578;2023-02-13T04:38:00;7.70;99.90
23556;DHT22;11956;53.184;8.578;2023-02-13T04:41:01;7.70;99.90
23556;DHT22;11956;53.184;8.578;2023-02-13T04:44:02;7.70;99.90
23556;DHT22;11956;53.184;8.578;2023-02-13T04:47:03;7.70;99.90
23556;DHT22;11956;53.184;8.578;2023-02-13T04:50:05;7.70;99.90
23556;DHT22;11956;53.184;8.578;2023-02-13T04:53:06;7.70;99.90
23556;DHT22;11956;53.184;8.578;2023-02-13T04:56:07;7.70;99.90
23556;DHT22;11956;53.184;8.578;2023-02-13T04:59:07;7.70;99.90
23556;DHT22;11956;53.184;8.578;2023-02-13T05:02:08;7.70;99.90
23556;DHT22;11956;53.184;8.578;2023-02-13T05:05:09;7.60;99.90
23556;DHT22;11956;53.184;8.578;2023-02-13T05:08:10;7.60;99.90
23556;DHT22;11956;53.184;8.578;2023-02-13T05:11:11;7.50;99.90
23556;DHT22;11956;53.184;8.578;2023-02-13T05:14:12;7.50;99.90
23556;DHT22;11956;53.184;8.578;2023-02-13T05:17:13;7.50;99.90
23556;DHT22;11956;53.184;8.578;2023-02-13T05:20:15;7.50;99.90
23556;DHT22;11956;53.184;8.578;2023-02-13T05:23:16;7.50;99.90
23556;DHT22;11956;53.184;8.578;2023-02-13T05:26:22;7.50;99.90
23556;DHT22;11956;53.184;8.578;2023-02-13T05:29:23;7.50;99.90
23556;DHT22;11956;53.184;8.578;2023-02-13T05:32:24;7.60;99.90
23556;DHT22;11956;53.184;8.578;2023-02-13T05:35:25;7.50;99.90
23556;DHT22;11956;53.184;8.578;2023-02-13T05:38:26;7.60;99.90
23556;DHT22;11956;53.184;8.578;2023-02-13T05:41:27;7.60;99.90
23556;DHT22;11956;53.184;8.578;2023-02-13T05:44:28;7.60;99.90
23556;DHT22;11956;53.184;8.578;2023-02-13T05:47:28;7.60;99.90
23556;DHT22;11956;53.184;8.578;2023-02-13T05:50:31;7.60;99.90
23556;DHT22;11956;53.184;8.578;2023-02-13T05:53:31;7.60;99.90
23556;DHT22;11956;53.184;8.578;2023-02-13T05:56:34;7.60;99.90
23556;DHT22;11956;53.184;8.578;2023-02-13T05:59:35;7.60;99.90
23556;DHT22;11956;53.184;8.578;2023-02-13T06:02:36;7.70;99.90
23556;DHT22;11956;53.184;8.578;2023-02-13T06:05:37;7.70;99.90
23556;DHT22;11956;53.184;8.578;2023-02-13T06:08:38;7.60;99.90
23556;DHT22;11956;53.184;8.578;2023-02-13T06:11:38;7.60;99.90
23556;DHT22;11956;53.184;8.578;2023-02-13T06:14:39;7.60;99.90
23556;DHT22;11956;53.184;8.578;2023-02-13T06:17:40;7.60;99.90
23556;DHT22;11956;53.184;8.578;2023-02-13T06:20:41;7.60;99.90
23556;DHT22;11956;53.184;8.578;2023-02-13T06:23:42;7.50;99.90
23556;DHT22;11956;53.184;8.578;2023-02-13T06:26:43;7.60;99.90
23556;DHT22;11956;53.184;8.578;2023-02-13T06:29:43;7.60;99.90
23556;DHT22;11956;53.184;8.578;2023-02-13T06:32:47;7.70;99.90
23556;DHT22;11956;53.184;8.578;2023-02-13T06:35:49;7.70;99.90
23556;DHT22;11956;53.184;8.578;2023-02-13T06:38:50;7.80;99.90
23556;DHT22;11956;53.184;8.578;2023-02-13T06:41:52;7.70;99.90
23556;DHT22;11956;53.184;8.578;2023-02-13T06:44:53;7.70;99.90
23556;DHT22;11956;53.184;8.578;2023-02-13T06:47:54;7.70;99.90
23556;DHT22;11956;53.184;8.578;2023-02-13T06:50:55;7.70;99.90
23556;DHT22;11956;53.184;8.578;2023-02-13T06:53:56;7.70;99.90
23556;DHT22;11956;53.184;8.578;2023-02-13T06:56:57;7.70;99.90
23556;DHT22;11956;53.184;8.578;2023-02-13T06:59:59;7.70;99.90
23556;DHT22;11956;53.184;8.578;2023-02-13T07:03:05;7.60;99.90
23556;DHT22;11956;53.184;8.578;2023-02-13T07:06:06;7.70;99.90
23556;DHT22;11956;53.184;8.578;2023-02-13T07:09:07;7.60;99.90
23556;DHT22;11956;53.184;8.578;2023-02-13T07:12:08;7.60;99.90
23556;DHT22;11956;53.184;8.578;2023-02-13T07:15:09;7.60;99.90
23556;DHT22;11956;53.184;8.578;2023-02-13T07:18:10;7.60;99.90
23556;DHT22;11956;53.184;8.578;2023-02-13T07:21:11;7.70;99.90
23556;DHT22;11956;53.184;8.578;2023-02-13T07:24:12;7.70;99.90
23556;DHT22;11956;53.184;8.578;2023-02-13T07:27:13;7.70;99.90
23556;DHT22;11956;53.184;8.578;2023-02-13T07:30:14;7.70;99.90
23556;DHT22;11956;53.184;8.578;2023-02-13T07:33:15;7.80;99.90
23556;DHT22;11956;53.184;8.578;2023-02-13T07:36:16;7.70;99.90
23556;DHT22;11956;53.184;8.578;2023-02-13T07:39:17;7.70;99.90
23556;DHT22;11956;53.184;8.578;2023-02-13T07:42:18;7.70;99.90
23556;DHT22;11956;53.184;8.578;2023-02-13T07:45:19;7.70;99.90
23556;DHT22;11956;53.184;8.578;2023-02-13T07:48:23;7.70;99.90
23556;DHT22;11956;53.184;8.578;2023-02-13T07:51:26;7.70;99.90
23556;DHT22;11956;53.184;8.578;2023-02-13T07:54:28;7.70;99.90
23556;DHT22;11956;53.184;8.578;2023-02-13T07:57:30;7.80;99.90
23556;DHT22;11956;53.184;8.578;2023-02-13T08:00:31;7.80;99.90
23556;DHT22;11956;53.184;8.578;2023-02-13T08:03:32;7.70;99.90
23556;DHT22;11956;53.184;8.578;2023-02-13T08:06:33;7.70;99.90
23556;DHT22;11956;53.184;8.578;2023-02-13T08:09:34;7.70;99.90
23556;DHT22;11956;53.184;8.578;2023-02-13T08:12:53;7.70;99.90
23556;DHT22;11956;53.184;8.578;2023-02-13T08:15:54;7.80;99.90
23556;DHT22;11956;53.184;8.578;2023-02-13T08:18:55;7.80;99.90
23556;DHT22;11956;53.184;8.578;2023-02-13T08:21:56;7.80;99.90
23556;DHT22;11956;53.184;8.578;2023-02-13T08:24:57;7.90;99.90
23556;DHT22;11956;53.184;8.578;2023-02-13T08:27:59;7.90;99.90
23556;DHT22;11956;53.184;8.578;2023-02-13T08:31:00;8.00;99.90
23556;DHT22;11956;53.184;8.578;2023-02-13T08:34:01;8.00;99.90
23556;DHT22;11956;53.184;8.578;2023-02-13T08:37:03;8.10;99.90
23556;DHT22;11956;53.184;8.578;2023-02-13T08:40:04;8.10;99.90
23556;DHT22;11956;53.184;8.578;2023-02-13T08:43:05;8.10;99.90
23556;DHT22;11956;53.184;8.578;2023-02-13T08:46:10;8.20;99.90
23556;DHT22;11956;53.184;8.578;2023-02-13T08:49:11;8.20;99.90
23556;DHT22;11956;53.184;8.578;2023-02-13T08:52:12;8.20;99.90
23556;DHT22;11956;53.184;8.578;2023-02-13T08:55:13;8.20;99.90
23556;DHT22;11956;53.184;8.578;2023-02-13T08:58:14;8.30;99.90
23556;DHT22;11956;53.184;8.578;2023-02-13T09:01:15;8.30;99.90
23556;DHT22;11956;53.184;8.578;2023-02-13T09:04:16;8.20;99.90
23556;DHT22;11956;53.184;8.578;2023-02-13T09:07:17;8.30;99.90
23556;DHT22;11956;53.184;8.578;2023-02-13T09:10:18;8.20;99.90
23556;DHT22;11956;53.184;8.578;2023-02-13T09:13:19;8.20;99.90
23556;DHT22;11956;53.184;8.578;2023-02-13T09:16:20;8.20;99.90
23556;DHT22;11956;53.184;8.578;2023-02-13T09:19:22;8.20;99.90
23556;DHT22;11956;53.184;8.578;2023-02-13T09:22:22;8.10;99.90
23556;DHT22;11956;53.184;8.578;2023-02-13T09:25:24;8.10;99.90
23556;DHT22;11956;53.184;8.578;2023-02-13T09:28:25;8.20;99.90
23556;DHT22;11956;53.184;8.578;2023-02-13T09:31:26;8.20;99.90
23556;DHT22;11956;53.184;8.578;2023-02-13T09:34:27;8.30;99.90
23556;DHT22;11956;53.184;8.578;2023-02-13T09:37:27;8.30;99.90
23556;DHT22;11956;53.184;8.578;2023-02-13T09:40:36;8.30;99.90
23556;DHT22;11956;53.184;8.578;2023-02-13T09:46:53;8.20;99.90
23556;DHT22;11956;53.184;8.578;2023-02-13T09:50:18;8.20;99.90
23556;DHT22;11956;53.184;8.578;2023-02-13T09:53:23;8.30;99.90
23556;DHT22;11956;53.184;8.578;2023-02-13T10:09:20;8.40;99.90
23556;DHT22;11956;53.184;8.578;2023-02-13T10:16:13;8.20;99.90
23556;DHT22;11956;53.184;8.578;2023-02-13T10:22:43;8.20;99.90
23556;DHT22;11956;53.184;8.578;2023-02-13T10:25:59;8.20;99.90
23556;DHT22;11956;53.184;8.578;2023-02-13T10:29:18;8.10;99.90
23556;DHT22;11956;53.184;8.578;2023-02-13T10:36:21;8.30;99.90
23556;DHT22;11956;53.184;8.578;2023-02-13T10:39:26;8.20;99.90
23556;DHT22;11956;53.184;8.578;2023-02-13T10:42:36;8.30;99.90
23556;DHT22;11956;53.184;8.578;2023-02-13T10:53:39;8.50;99.90
23556;DHT22;11956;53.184;8.578;2023-02-13T11:00:20;8.60;99.90
23556;DHT22;11956;53.184;8.578;2023-02-13T11:03:28;8.60;99.90
23556;DHT22;11956;53.184;8.578;2023-02-13T11:06:33;8.70;99.90
23556;DHT22;11956;53.184;8.578;2023-02-13T11:09:40;8.80;99.90
23556;DHT22;11956;53.184;8.578;2023-02-13T11:12:43;8.80;99.90
23556;DHT22;11956;53.184;8.578;2023-02-13T11:19:02;8.90;99.90
23556;DHT22;11956;53.184;8.578;2023-02-13T11:22:10;9.00;99.90
23556;DHT22;11956;53.184;8.578;2023-02-13T11:25:20;9.10;99.90
23556;DHT22;11956;53.184;8.578;2023-02-13T11:28:28;9.10;99.90
23556;DHT22;11956;53.184;8.578;2023-02-13T11:31:33;9.00;99.90
23556;DHT22;11956;53.184;8.578;2023-02-13T11:34:35;9.20;99.90
23556;DHT22;11956;53.184;8.578;2023-02-13T11:37:35;9.30;99.90
23556;DHT22;11956;53.184;8.578;2023-02-13T11:40:37;9.30;99.90
23556;DHT22;11956;53.184;8.578;2023-02-13T11:43:49;9.40;99.90
23556;DHT22;11956;53.184;8.578;2023-02-13T11:46:56;9.50;99.90
23556;DHT22;11956;53.184;8.578;2023-02-13T11:49:58;9.50;99.90
23556;DHT22;11956;53.184;8.578;2023-02-13T11:53:03;9.50;99.90
23556;DHT22;11956;53.184;8.578;2023-02-13T11:56:13;9.60;99.90
23556;DHT22;11956;53.184;8.578;2023-02-13T11:59:14;9.60;99.90
23556;DHT22;11956;53.184;8.578;2023-02-13T12:02:29;9.70;99.90
23556;DHT22;11956;53.184;8.578;2023-02-13T12:05:31;9.60;99.90
23556;DHT22;11956;53.184;8.578;2023-02-13T12:08:37;9.60;99.90
23556;DHT22;11956;53.184;8.578;2023-02-13T12:11:45;9.50;99.90
23556;DHT22;11956;53.184;8.578;2023-02-13T12:14:49;9.50;99.90
23556;DHT22;11956;53.184;8.578;2023-02-13T12:18:15;9.60;99.90
23556;DHT22;11956;53.184;8.578;2023-02-13T12:21:27;9.60;99.90
23556;DHT22;11956;53.184;8.578;2023-02-13T12:32:18;9.50;99.90
23556;DHT22;11956;53.184;8.578;2023-02-13T13:07:15;10.10;99.90
23556;DHT22;11956;53.184;8.578;2023-02-13T13:13:56;10.20;99.90
23556;DHT22;11956;53.184;8.578;2023-02-13T13:18:14;10.10;99.90
23556;DHT22;11956;53.184;8.578;2023-02-13T13:21:00;10.10;99.90
23556;DHT22;11956;53.184;8.578;2023-02-13T13:27:44;10.20;99.90
23556;DHT22;11956;53.184;8.578;2023-02-13T13:30:46;10.20;99.90
23556;DHT22;11956;53.184;8.578;2023-02-13T13:33:48;10.20;99.90
23556;DHT22;11956;53.184;8.578;2023-02-13T13:37:24;10.30;99.90
23556;DHT22;11956;53.184;8.578;2023-02-13T13:47:04;10.20;99.90
23556;DHT22;11956;53.184;8.578;2023-02-13T13:50:23;10.20;99.90
23556;DHT22;11956;53.184;8.578;2023-02-13T13:53:25;10.10;99.90
23556;DHT22;11956;53.184;8.578;2023-02-13T14:00:21;10.10;99.90
23556;DHT22;11956;53.184;8.578;2023-02-13T14:03:35;10.10;99.90
23556;DHT22;11956;53.184;8.578;2023-02-13T14:09:58;10.10;99.90
23556;DHT22;11956;53.184;8.578;2023-02-13T14:13:00;9.90;99.90
23556;DHT22;11956;53.184;8.578;2023-02-13T14:16:10;9.90;99.90
23556;DHT22;11956;53.184;8.578;2023-02-13T14:19:45;9.80;99.90
23556;DHT22;11956;53.184;8.578;2023-02-13T14:22:51;9.80;99.90
23556;DHT22;11956;53.184;8.578;2023-02-13T14:26:31;9.90;99.90
23556;DHT22;11956;53.184;8.578;2023-02-13T14:29:33;9.80;99.90
23556;DHT22;11956;53.184;8.578;2023-02-13T14:32:37;9.90;99.90
23556;DHT22;11956;53.184;8.578;2023-02-13T14:35:40;9.80;99.90
23556;DHT22;11956;53.184;8.578;2023-02-13T14:38:41;9.90;99.90
23556;DHT22;11956;53.184;8.578;2023-02-13T14:44:50;10.00;99.90
23556;DHT22;11956;53.184;8.578;2023-02-13T14:47:56;9.90;99.90
23556;DHT22;11956;53.184;8.578;2023-02-13T14:50:57;9.90;99.90
23556;DHT22;11956;53.184;8.578;2023-02-13T14:54:12;9.90;99.90
23556;DHT22;11956;53.184;8.578;2023-02-13T14:57:43;9.90;99.90
23556;DHT22;11956;53.184;8.578;2023-02-13T15:04:14;9.80;99.90
23556;DHT22;11956;53.184;8.578;2023-02-13T15:07:18;9.70;99.90
23556;DHT22;11956;53.184;8.578;2023-02-13T15:10:43;9.60;99.90
23556;DHT22;11956;53.184;8.578;2023-02-13T15:13:46;9.50;99.90
23556;DHT22;11956;53.184;8.578;2023-02-13T15:16:56;9.50;99.90
23556;DHT22;11956;53.184;8.578;2023-02-13T15:23:32;9.40;99.90
23556;DHT22;11956;53.184;8.578;2023-02-13T15:26:34;9.40;99.90
23556;DHT22;11956;53.184;8.578;2023-02-13T15:29:35;9.40;99.90
23556;DHT22;11956;53.184;8.578;2023-02-13T15:32:36;9.40;99.90
23556;DHT22;11956;53.184;8.578;2023-02-13T15:35:36;9.50;99.90
23556;DHT22;11956;53.184;8.578;2023-02-13T15:38:37;9.50;99.90
23556;DHT22;11956;53.184;8.578;2023-02-13T15:41:42;9.50;99.90
23556;DHT22;11956;53.184;8.578;2023-02-13T15:44:55;9.40;99.90
23556;DHT22;11956;53.184;8.578;2023-02-13T15:47:57;9.30;99.90
23556;DHT22;11956;53.184;8.578;2023-02-13T15:50:59;9.10;99.90
23556;DHT22;11956;53.184;8.578;2023-02-13T15:54:05;9.20;99.90
23556;DHT22;11956;53.184;8.578;2023-02-13T15:57:20;9.10;99.90
23556;DHT22;11956;53.184;8.578;2023-02-13T16:00:40;9.00;99.90
23556;DHT22;11956;53.184;8.578;2023-02-13T16:03:49;9.00;99.90
23556;DHT22;11956;53.184;8.578;2023-02-13T16:06:55;9.00;99.90
23556;DHT22;11956;53.184;8.578;2023-02-13T16:10:49;8.90;99.90
23556;DHT22;11956;53.184;8.578;2023-02-13T16:14:22;8.80;99.90
23556;DHT22;11956;53.184;8.578;2023-02-13T16:17:37;8.70;99.90
23556;DHT22;11956;53.184;8.578;2023-02-13T16:20:39;8.70;99.90
23556;DHT22;11956;53.184;8.578;2023-02-13T16:23:43;8.60;99.90
23556;DHT22;11956;53.184;8.578;2023-02-13T16:26:45;8.50;99.90
23556;DHT22;11956;53.184;8.578;2023-02-13T16:29:55;8.50;99.90
23556;DHT22;11956;53.184;8.578;2023-02-13T16:36:25;8.40;99.90
23556;DHT22;11956;53.184;8.578;2023-02-13T16:39:30;8.40;99.90
23556;DHT22;11956;53.184;8.578;2023-02-13T16:42:32;8.40;99.90
23556;DHT22;11956;53.184;8.578;2023-02-13T16:45:33;8.40;99.90
23556;DHT22;11956;53.184;8.578;2023-02-13T16:48:34;8.40;99.90
23556;DHT22;11956;53.184;8.578;2023-02-13T16:55:16;8.40;99.90
23556;DHT22;11956;53.184;8.578;2023-02-13T16:58:17;8.30;99.90
23556;DHT22;11956;53.184;8.578;2023-02-13T17:01:18;8.30;99.90
23556;DHT22;11956;53.184;8.578;2023-02-13T17:04:22;8.30;99.90
23556;DHT22;11956;53.184;8.578;2023-02-13T17:07:29;8.30;99.90
23556;DHT22;11956;53.184;8.578;2023-02-13T17:10:36;8.20;99.90
23556;DHT22;11956;53.184;8.578;2023-02-13T17:13:37;8.20;99.90
23556;DHT22;11956;53.184;8.578;2023-02-13T17:16:38;8.30;99.90
23556;DHT22;11956;53.184;8.578;2023-02-13T17:19:39;8.30;99.90
23556;DHT22;11956;53.184;8.578;2023-02-13T17:22:42;8.30;99.90
23556;DHT22;11956;53.184;8.578;2023-02-13T17:25:45;8.30;99.90
23556;DHT22;11956;53.184;8.578;2023-02-13T17:28:47;8.30;99.90
23556;DHT22;11956;53.184;8.578;2023-02-13T17:31:52;8.30;99.90
23556;DHT22;11956;53.184;8.578;2023-02-13T17:34:54;8.30;99.90
23556;DHT22;11956;53.184;8.578;2023-02-13T17:37:56;8.30;99.90
23556;DHT22;11956;53.184;8.578;2023-02-13T17:40:57;8.30;99.90
23556;DHT22;11956;53.184;8.578;2023-02-13T17:43:57;8.30;99.90
23556;DHT22;11956;53.184;8.578;2023-02-13T17:46:58;8.30;99.90
23556;DHT22;11956;53.184;8.578;2023-02-13T17:49:59;8.30;99.90
23556;DHT22;11956;53.184;8.578;2023-02-13T17:53:15;8.30;99.90
23556;DHT22;11956;53.184;8.578;2023-02-13T17:56:20;8.30;99.90
23556;DHT22;11956;53.184;8.578;2023-02-13T17:59:22;8.30;99.90
23556;DHT22;11956;53.184;8.578;2023-02-13T18:02:23;8.20;99.90
23556;DHT22;11956;53.184;8.578;2023-02-13T18:05:26;8.20;99.90
23556;DHT22;11956;53.184;8.578;2023-02-13T18:08:27;8.20;99.90
23556;DHT22;11956;53.184;8.578;2023-02-13T18:11:28;8.20;99.90
23556;DHT22;11956;53.184;8.578;2023-02-13T18:14:30;8.20;99.90
23556;DHT22;11956;53.184;8.578;2023-02-13T18:17:31;8.10;99.90
23556;DHT22;11956;53.184;8.578;2023-02-13T18:20:32;8.20;99.90
23556;DHT22;11956;53.184;8.578;2023-02-13T18:23:33;8.10;99.90
23556;DHT22;11956;53.184;8.578;2023-02-13T18:26:34;8.20;99.90
23556;DHT22;11956;53.184;8.578;2023-02-13T18:29:35;8.20;99.90
23556;DHT22;11956;53.184;8.578;2023-02-13T18:32:37;8.20;99.90
23556;DHT22;11956;53.184;8.578;2023-02-13T18:35:38;8.10;99.90
23556;DHT22;11956;53.184;8.578;2023-02-13T18:38:38;8.10;99.90
23556;DHT22;11956;53.184;8.578;2023-02-13T18:41:40;8.10;99.90
23556;DHT22;11956;53.184;8.578;2023-02-13T18:44:41;8.00;99.90
23556;DHT22;11956;53.184;8.578;2023-02-13T18:47:41;8.10;99.90
23556;DHT22;11956;53.184;8.578;2023-02-13T18:50:42;8.10;99.90
23556;DHT22;11956;53.184;8.578;2023-02-13T18:53:43;8.10;99.90
23556;DHT22;11956;53.184;8.578;2023-02-13T18:56:44;8.10;99.90
23556;DHT22;11956;53.184;8.578;2023-02-13T18:59:45;8.10;99.90
23556;DHT22;11956;53.184;8.578;2023-02-13T19:02:46;8.10;99.90
23556;DHT22;11956;53.184;8.578;2023-02-13T19:05:47;8.10;99.90
23556;DHT22;11956;53.184;8.578;2023-02-13T19:08:48;8.00;99.90
23556;DHT22;11956;53.184;8.578;2023-02-13T19:11:49;8.10;99.90
23556;DHT22;11956;53.184;8.578;2023-02-13T19:14:51;8.10;99.90
23556;DHT22;11956;53.184;8.578;2023-02-13T19:17:51;8.10;99.90
23556;DHT22;11956;53.184;8.578;2023-02-13T19:21:00;8.10;99.90
23556;DHT22;11956;53.184;8.578;2023-02-13T19:24:04;8.10;99.90
23556;DHT22;11956;53.184;8.578;2023-02-13T19:27:07;8.10;99.90
23556;DHT22;11956;53.184;8.578;2023-02-13T19:30:08;8.10;99.90
23556;DHT22;11956;53.184;8.578;2023-02-13T19:33:10;8.10;99.90
23556;DHT22;11956;53.184;8.578;2023-02-13T19:36:13;8.20;99.90
23556;DHT22;11956;53.184;8.578;2023-02-13T19:39:15;8.20;99.90
23556;DHT22;11956;53.184;8.578;2023-02-13T19:42:16;8.10;99.90
23556;DHT22;11956;53.184;8.578;2023-02-13T19:45:17;8.10;99.90
23556;DHT22;11956;53.184;8.578;2023-02-13T19:48:18;8.10;99.90
23556;DHT22;11956;53.184;8.578;2023-02-13T19:51:21;8.10;99.90
23556;DHT22;11956;53.184;8.578;2023-02-13T19:54:27;8.00;99.90
23556;DHT22;11956;53.184;8.578;2023-02-13T19:57:28;7.90;99.90
23556;DHT22;11956;53.184;8.578;2023-02-13T20:00:29;7.80;99.90
23556;DHT22;11956;53.184;8.578;2023-02-13T20:03:30;7.70;99.90
23556;DHT22;11956;53.184;8.578;2023-02-13T20:06:33;7.50;99.90
23556;DHT22;11956;53.184;8.578;2023-02-13T20:09:35;7.30;99.90
23556;DHT22;11956;53.184;8.578;2023-02-13T20:12:37;7.10;99.90
23556;DHT22;11956;53.184;8.578;2023-02-13T20:15:39;7.00;99.90
23556;DHT22;11956;53.184;8.578;2023-02-13T20:18:41;6.90;99.90
23556;DHT22;11956;53.184;8.578;2023-02-13T20:21:42;6.70;99.90
23556;DHT22;11956;53.184;8.578;2023-02-13T20:24:43;6.60;99.90
23556;DHT22;11956;53.184;8.578;2023-02-13T20:27:46;6.50;99.90
23556;DHT22;11956;53.184;8.578;2023-02-13T20:30:47;6.30;99.90
23556;DHT22;11956;53.184;8.578;2023-02-13T20:33:49;6.20;99.90
23556;DHT22;11956;53.184;8.578;2023-02-13T20:36:50;6.10;99.90
23556;DHT22;11956;53.184;8.578;2023-02-13T20:39:51;6.00;99.90
23556;DHT22;11956;53.184;8.578;2023-02-13T20:42:53;5.90;99.90
23556;DHT22;11956;53.184;8.578;2023-02-13T20:45:55;5.80;99.90
23556;DHT22;11956;53.184;8.578;2023-02-13T20:48:56;5.60;99.90
23556;DHT22;11956;53.184;8.578;2023-02-13T20:51:56;5.60;99.90
23556;DHT22;11956;53.184;8.578;2023-02-13T20:54:57;5.50;99.90
23556;DHT22;11956;53.184;8.578;2023-02-13T20:58:00;5.40;99.90
23556;DHT22;11956;53.184;8.578;2023-02-13T21:01:01;5.30;99.90
23556;DHT22;11956;53.184;8.578;2023-02-13T21:04:02;5.20;99.90
23556;DHT22;11956;53.184;8.578;2023-02-13T21:07:03;5.10;99.90
23556;DHT22;11956;53.184;8.578;2023-02-13T21:10:08;5.10;99.90
23556;DHT22;11956;53.184;8.578;2023-02-13T21:13:10;4.90;99.90
23556;DHT22;11956;53.184;8.578;2023-02-13T21:16:12;4.90;99.90
23556;DHT22;11956;53.184;8.578;2023-02-13T21:19:18;4.80;99.90
23556;DHT22;11956;53.184;8.578;2023-02-13T21:22:19;4.70;99.90
23556;DHT22;11956;53.184;8.578;2023-02-13T21:25:21;4.70;99.90
23556;DHT22;11956;53.184;8.578;2023-02-13T21:28:22;4.60;99.90
23556;DHT22;11956;53.184;8.578;2023-02-13T21:31:32;4.50;99.90
23556;DHT22;11956;53.184;8.578;2023-02-13T21:34:35;4.40;99.90
23556;DHT22;11956;53.184;8.578;2023-02-13T21:37:36;4.40;99.90
23556;DHT22;11956;53.184;8.578;2023-02-13T21:40:37;4.30;99.90
23556;DHT22;11956;53.184;8.578;2023-02-13T21:43:38;4.30;99.90
23556;DHT22;11956;53.184;8.578;2023-02-13T21:46:41;4.20;99.90
23556;DHT22;11956;53.184;8.578;2023-02-13T21:49:43;4.20;99.90
23556;DHT22;11956;53.184;8.578;2023-02-13T21:52:44;4.10;99.90
23556;DHT22;11956;53.184;8.578;2023-02-13T21:55:45;4.10;99.90
23556;DHT22;11956;53.184;8.578;2023-02-13T21:58:46;4.00;99.90
23556;DHT22;11956;53.184;8.578;2023-02-13T22:01:48;3.90;99.90
23556;DHT22;11956;53.184;8.578;2023-02-13T22:04:49;3.90;99.90
23556;DHT22;11956;53.184;8.578;2023-02-13T22:07:50;3.90;99.90
23556;DHT22;11956;53.184;8.578;2023-02-13T22:11:10;3.80;99.90
23556;DHT22;11956;53.184;8.578;2023-02-13T22:14:14;3.70;99.90
23556;DHT22;11956;53.184;8.578;2023-02-13T22:17:16;3.70;99.90
23556;DHT22;11956;53.184;8.578;2023-02-13T22:20:17;3.60;99.90